Time;durP1;ratioP1;P1;durP2;ratioP2;P2;SDS_P1;SDS_P2;PMS_P1;PMS_P2;Temp;Humidity;BMP_temperature;BMP_pressure;BME280_temperature;BME280_humidity;BME280_pressure;Samples;Min_cycle;Max_cycle;Signal;HPM_P1;HPM_P2
2023/11/20 00:01:50;;;;;;;6.32;2.03;;;;;;;19.66;50.68;100772.94;5009835;28;20047;-67
2023/11/20 00:04:16;;;;;;;5.57;1.80;;;;;;;19.63;51.02;100773.19;5008834;28;20124;-68
2023/11/20 00:06:41;;;;;;;5.45;1.77;;;;;;;19.64;51.06;100779.31;5009460;28;20030;-66
2023/11/20 00:09:09;;;;;;;5.28;1.75;;;;;;;19.62;51.09;100784.75;5008812;28;20064;-67
2023/11/20 00:11:34;;;;;;;6.18;1.60;;;;;;;19.61;51.01;100785.69;5009754;28;20027;-67
2023/11/20 00:14:00;;;;;;;5.13;2.38;;;;;;;19.61;51.22;100787.50;5010236;28;20156;-67
2023/11/20 00:16:25;;;;;;;6.05;1.65;;;;;;;19.58;50.97;100789.47;5009685;28;20439;-67
2023/11/20 00:18:51;;;;;;;4.80;1.73;;;;;;;19.58;50.93;100785.97;5009900;28;20038;-67
2023/11/20 00:21:16;;;;;;;5.78;1.40;;;;;;;19.57;51.03;100777.22;5009072;28;20030;-68
2023/11/20 00:23:42;;;;;;;5.28;1.80;;;;;;;19.55;51.01;100779.16;5009751;28;20080;-68
2023/11/20 00:26:11;;;;;;;4.63;1.70;;;;;;;19.54;51.12;100782.75;5024144;28;20030;-67
2023/11/20 00:28:36;;;;;;;6.00;1.77;;;;;;;19.55;50.94;100778.31;5008583;28;20045;-68
2023/11/20 00:31:01;;;;;;;7.93;1.90;;;;;;;19.53;50.72;100775.78;5007871;28;20075;-69
2023/11/20 00:33:27;;;;;;;8.33;2.00;;;;;;;19.54;51.18;100777.47;5008164;28;20635;-67
2023/11/20 00:35:52;;;;;;;5.40;1.85;;;;;;;19.53;50.78;100772.31;5009055;28;20316;-66
2023/11/20 00:38:17;;;;;;;5.80;1.90;;;;;;;19.52;50.96;100768.84;5008594;28;20026;-68
2023/11/20 00:40:43;;;;;;;4.63;1.70;;;;;;;19.51;50.77;100774.28;5008901;28;20370;-66
2023/11/20 00:43:08;;;;;;;4.95;1.73;;;;;;;19.49;50.92;100771.78;5009218;28;20056;-68
2023/11/20 00:45:33;;;;;;;5.50;2.13;;;;;;;19.50;50.76;100777.88;5009315;28;20034;-67
2023/11/20 00:47:58;;;;;;;6.45;1.70;;;;;;;19.49;50.84;100777.06;5008120;28;20085;-68
2023/11/20 00:50:24;;;;;;;6.93;2.17;;;;;;;19.48;50.64;100785.94;5008824;28;20033;-66
2023/11/20 00:52:49;;;;;;;5.72;1.63;;;;;;;19.48;50.62;100785.94;5008912;28;20484;-68
2023/11/20 00:55:14;;;;;;;5.20;2.00;;;;;;;19.46;50.75;100790.53;5009047;28;20473;-68
2023/11/20 00:57:40;;;;;;;4.78;1.60;;;;;;;19.46;50.69;100792.34;5008430;28;20022;-67
2023/11/20 01:00:07;;;;;;;7.22;1.92;;;;;;;19.46;50.70;100795.81;5008852;28;20029;-67
2023/11/20 01:02:33;;;;;;;4.28;1.58;;;;;;;19.45;50.62;100801.25;5023401;28;20033;-67
2023/11/20 01:04:59;;;;;;;6.18;2.00;;;;;;;19.44;50.65;100796.91;5008317;28;20044;-67
2023/11/20 01:07:25;;;;;;;5.93;2.05;;;;;;;19.43;50.84;100801.38;5008383;28;20029;-67
2023/11/20 01:09:50;;;;;;;5.25;1.92;;;;;;;19.44;50.64;100794.28;5008708;28;20026;-67
2023/11/20 01:12:15;;;;;;;5.80;1.98;;;;;;;19.43;50.63;100795.28;5008628;28;20383;-67
2023/11/20 01:14:41;;;;;;;7.17;1.70;;;;;;;19.42;50.48;100804.16;5008110;28;20054;-67
2023/11/20 01:17:06;;;;;;;6.35;1.80;;;;;;;19.40;50.60;100799.00;5008559;28;20590;-67
2023/11/20 01:19:31;;;;;;;5.15;1.90;;;;;;;19.39;50.66;100811.38;5008305;28;20025;-68
2023/11/20 01:21:57;;;;;;;5.65;2.15;;;;;;;19.41;50.71;100816.53;5008510;28;20062;-67
2023/11/20 01:24:22;;;;;;;5.47;2.20;;;;;;;19.38;50.43;100812.34;5007802;28;20021;-67
2023/11/20 01:26:49;;;;;;;7.00;1.75;;;;;;;19.38;50.44;100811.53;5008532;28;20044;-69
2023/11/20 01:29:14;;;;;;;6.43;1.83;;;;;;;19.37;50.54;100815.94;5007775;28;20092;-67
2023/11/20 01:31:39;;;;;;;5.07;1.80;;;;;;;19.38;50.56;100819.44;5007730;28;20553;-67
2023/11/20 01:34:05;;;;;;;6.65;1.83;;;;;;;19.37;50.65;100820.41;5007942;28;20041;-67
2023/11/20 01:36:30;;;;;;;6.40;2.00;;;;;;;19.35;50.57;100823.19;5008234;28;20041;-67
2023/11/20 01:38:56;;;;;;;7.40;2.03;;;;;;;19.36;50.61;100830.16;5007927;28;20372;-67
2023/11/20 01:41:21;;;;;;;6.65;2.03;;;;;;;19.35;50.64;100832.94;5007306;28;20367;-67
2023/11/20 01:43:47;;;;;;;7.82;2.10;;;;;;;19.34;50.58;100829.47;5007684;28;20113;-67
2023/11/20 01:46:13;;;;;;;6.95;2.10;;;;;;;19.34;50.54;100831.25;5007291;28;20108;-67
2023/11/20 01:48:39;;;;;;;6.32;2.00;;;;;;;19.33;50.79;100843.63;5007423;28;20034;-68
2023/11/20 01:51:05;;;;;;;5.95;1.98;;;;;;;19.32;50.52;100833.19;5007139;28;20033;-68
2023/11/20 01:53:32;;;;;;;7.00;1.90;;;;;;;19.31;50.55;100835.00;5006999;28;21503;-69
2023/11/20 01:55:58;;;;;;;4.88;1.83;;;;;;;19.32;50.33;100844.59;5007538;28;20088;-68
2023/11/20 01:58:25;;;;;;;4.15;1.75;;;;;;;19.30;50.60;100838.59;5007165;28;20034;-68
2023/11/20 02:00:50;;;;;;;5.85;1.80;;;;;;;19.30;50.66;100832.50;5007110;28;20022;-68
2023/11/20 02:03:16;;;;;;;7.80;2.58;;;;;;;19.31;50.71;100844.72;5006702;28;20112;-67
2023/11/20 02:05:42;;;;;;;5.25;2.05;;;;;;;19.28;50.57;100829.97;5007445;28;20064;-68
2023/11/20 02:08:08;;;;;;;5.30;1.73;;;;;;;19.31;50.61;100835.00;5006229;28;20104;-68
2023/11/20 02:10:34;;;;;;;8.05;2.42;;;;;;;19.29;50.74;100844.84;5007042;28;20045;-68
2023/11/20 02:13:00;;;;;;;5.32;2.05;;;;;;;19.28;50.54;100839.69;5008303;28;20036;-68
2023/11/20 02:15:25;;;;;;;6.45;2.13;;;;;;;19.28;50.66;100835.28;5007144;28;20032;-68
2023/11/20 02:17:50;;;;;;;5.93;2.00;;;;;;;19.26;50.63;100823.97;5007342;28;20113;-70
2023/11/20 02:20:16;;;;;;;5.85;2.00;;;;;;;19.27;50.50;100824.84;5007738;28;20136;-67
2023/11/20 02:22:41;;;;;;;5.70;2.38;;;;;;;19.28;50.67;100818.56;5007356;28;20033;-70
2023/11/20 02:25:07;;;;;;;8.00;2.55;;;;;;;19.26;50.57;100821.34;5007264;28;20030;-67
2023/11/20 02:27:57;;;;;;;6.13;2.10;;;;;;;19.25;50.55;100821.47;5007368;28;20045;-69
2023/11/20 02:30:22;;;;;;;6.63;2.13;;;;;;;19.24;50.66;100823.28;5006733;28;20061;-67
2023/11/20 02:32:48;;;;;;;6.15;2.00;;;;;;;19.24;50.66;100819.81;5007094;28;20454;-68
2023/11/20 02:35:17;;;;;;;5.97;1.95;;;;;;;19.22;50.47;100814.66;5007026;28;20030;-68
2023/11/20 02:37:42;;;;;;;7.00;2.15;;;;;;;19.23;50.60;100813.66;5007442;28;20038;-69
2023/11/20 02:40:10;;;;;;;6.70;2.00;;;;;;;19.21;50.65;100815.63;5007169;28;20088;-68
2023/11/20 02:42:35;;;;;;;5.25;2.20;;;;;;;19.21;50.50;100812.97;5006068;28;20100;-68
2023/11/20 02:45:01;;;;;;;5.07;1.83;;;;;;;19.21;50.60;100815.63;5006292;28;20454;-67
2023/11/20 02:47:27;;;;;;;6.28;2.58;;;;;;;19.21;50.35;100812.97;5007197;28;20030;-68
2023/11/20 02:49:52;;;;;;;6.00;1.92;;;;;;;19.19;50.56;100804.34;5007039;28;20484;-68
2023/11/20 02:52:17;;;;;;;5.22;1.90;;;;;;;19.20;50.51;100803.38;5007095;28;20026;-69
2023/11/20 02:54:44;;;;;;;5.73;1.83;;;;;;;19.19;50.59;100801.72;5006497;28;20482;-68
2023/11/20 02:57:09;;;;;;;6.57;2.00;;;;;;;19.18;50.63;100807.94;5006758;28;20385;-69
2023/11/20 02:59:35;;;;;;;5.82;1.88;;;;;;;19.18;50.64;100806.16;5006665;28;20160;-69
2023/11/20 03:02:01;;;;;;;6.55;1.95;;;;;;;19.18;50.50;100806.16;5007043;28;20033;-68
2023/11/20 03:04:26;;;;;;;7.18;2.25;;;;;;;19.17;50.55;100806.31;5007111;28;20475;-68
2023/11/20 03:06:52;;;;;;;6.38;2.03;;;;;;;19.17;50.49;100807.13;5006910;28;20084;-68
2023/11/20 03:09:17;;;;;;;5.57;2.00;;;;;;;19.17;50.60;100808.94;5006886;28;20128;-68
2023/11/20 03:11:43;;;;;;;6.18;1.98;;;;;;;19.17;50.78;100806.31;5006956;28;20021;-67
2023/11/20 03:14:08;;;;;;;7.43;2.13;;;;;;;19.16;50.44;100802.81;5006731;28;20026;-67
2023/11/20 03:16:34;;;;;;;5.60;2.03;;;;;;;19.13;50.32;100803.06;5006877;28;20057;-68
2023/11/20 03:19:00;;;;;;;7.10;1.85;;;;;;;19.14;50.35;100799.47;5006395;28;20033;-68
2023/11/20 03:21:26;;;;;;;6.97;2.10;;;;;;;19.15;50.51;100800.28;5006886;28;20034;-68
2023/11/20 03:23:52;;;;;;;6.90;1.92;;;;;;;19.12;50.60;100790.84;5007017;28;20030;-68
2023/11/20 03:26:24;;;;;;;7.07;2.30;;;;;;;19.12;50.58;100796.13;5006488;28;20389;-68
2023/11/20 03:28:49;;;;;;;6.20;2.25;;;;;;;19.13;50.58;100789.84;5005451;28;20042;-68
2023/11/20 03:31:15;;;;;;;7.93;2.15;;;;;;;19.13;50.46;100789.84;5006191;28;20057;-70
2023/11/20 03:33:42;;;;;;;5.57;2.20;;;;;;;19.13;50.43;100797.78;5006559;28;20037;-67
2023/11/20 03:36:08;;;;;;;7.78;2.63;;;;;;;19.13;50.43;100799.59;5006676;28;20034;-67
2023/11/20 03:38:33;;;;;;;5.25;2.10;;;;;;;19.11;50.24;100798.91;5006021;28;20085;-67
2023/11/20 03:40:58;;;;;;;7.38;2.42;;;;;;;19.13;50.50;100803.06;5020706;28;20647;-67
2023/11/20 03:43:25;;;;;;;8.30;2.57;;;;;;;19.11;50.55;100805.00;5006440;28;20037;-67
2023/11/20 03:45:50;;;;;;;7.45;2.10;;;;;;;19.11;50.33;100809.47;5006044;28;20267;-67
2023/11/20 03:48:18;;;;;;;6.22;2.20;;;;;;;19.10;50.40;100810.41;5006558;28;20362;-67
2023/11/20 03:50:44;;;;;;;7.78;2.75;;;;;;;19.10;50.34;100819.19;5006428;28;20149;-68
2023/11/20 03:53:10;;;;;;;4.47;1.90;;;;;;;19.10;50.51;100813.88;5006023;28;20478;-68
2023/11/20 03:55:36;;;;;;;5.45;2.03;;;;;;;19.08;50.55;100818.47;5007396;28;20107;-67
2023/11/20 03:58:01;;;;;;;6.90;2.20;;;;;;;19.09;50.39;100822.81;5009431;28;20073;-68
2023/11/20 04:00:26;;;;;;;6.88;2.15;;;;;;;19.08;50.64;100829.03;5009797;28;20117;-67
2023/11/20 04:02:52;;;;;;;6.13;2.13;;;;;;;19.08;50.60;100831.69;5009482;28;20030;-68
2023/11/20 04:05:17;;;;;;;7.70;2.70;;;;;;;19.08;50.55;100825.56;5009682;28;20084;-66
2023/11/20 04:07:42;;;;;;;7.28;2.33;;;;;;;19.08;50.41;100810.56;5009224;28;20026;-67
2023/11/20 04:10:11;;;;;;;6.90;2.60;;;;;;;19.09;50.41;100821.94;5009439;28;20466;-67
2023/11/20 04:12:36;;;;;;;7.57;2.58;;;;;;;19.06;50.49;100816.94;5009735;28;20029;-67
2023/11/20 04:15:02;;;;;;;8.82;2.15;;;;;;;19.05;50.46;100813.47;5009917;28;20041;-67
2023/11/20 04:17:27;;;;;;;6.07;2.10;;;;;;;19.06;50.65;100817.78;5009958;28;20049;-67
2023/11/20 04:19:53;;;;;;;7.15;2.15;;;;;;;19.06;50.62;100833.63;5009735;28;20033;-67
2023/11/20 04:22:18;;;;;;;5.10;2.10;;;;;;;19.06;50.61;100831.00;5009914;28;20033;-67
2023/11/20 04:24:43;;;;;;;8.13;2.17;;;;;;;19.05;50.25;100820.56;5009752;28;20455;-67
2023/11/20 04:27:09;;;;;;;6.97;2.33;;;;;;;19.03;50.53;100818.88;5009494;28;20112;-67
2023/11/20 04:29:35;;;;;;;6.82;2.17;;;;;;;19.02;50.52;100813.72;5009390;28;20275;-68
2023/11/20 04:32:01;;;;;;;7.68;2.20;;;;;;;19.02;50.63;100822.47;5009528;28;20116;-67
2023/11/20 04:34:26;;;;;;;5.97;2.10;;;;;;;19.04;50.55;100822.34;5009050;28;20116;-67
2023/11/20 04:36:51;;;;;;;7.75;2.20;;;;;;;19.03;50.46;100824.16;5008682;28;20474;-67
2023/11/20 04:39:17;;;;;;;8.02;2.55;;;;;;;19.01;50.51;100826.09;5009376;28;20030;-68
2023/11/20 04:41:42;;;;;;;7.68;2.40;;;;;;;19.02;50.40;100817.19;5009146;28;20440;-69
2023/11/20 04:44:07;;;;;;;6.88;2.30;;;;;;;19.01;50.65;100818.19;5008905;28;20038;-69
2023/11/20 04:46:34;;;;;;;8.00;2.38;;;;;;;19.01;50.57;100822.63;5009194;28;20076;-69
2023/11/20 04:48:59;;;;;;;6.75;2.22;;;;;;;19.00;50.42;100826.22;5009348;28;20036;-68
2023/11/20 04:51:25;;;;;;;5.05;1.90;;;;;;;19.01;50.46;100825.28;5009066;28;20390;-67
2023/11/20 04:53:51;;;;;;;7.25;2.40;;;;;;;18.98;50.28;100815.78;5009149;28;20463;-67
2023/11/20 04:56:16;;;;;;;5.32;2.10;;;;;;;18.99;50.51;100813.97;5009041;28;20033;-67
2023/11/20 04:58:44;;;;;;;6.75;2.22;;;;;;;18.98;50.48;100814.97;5008555;28;20032;-68
2023/11/20 05:01:11;;;;;;;7.40;2.42;;;;;;;18.98;50.43;100810.50;5008515;28;20034;-68
2023/11/20 05:03:37;;;;;;;5.57;2.20;;;;;;;18.98;50.46;100812.31;5007438;28;20038;-68
2023/11/20 05:06:06;;;;;;;8.15;2.30;;;;;;;18.98;50.41;100812.31;5007514;28;20030;-67
2023/11/20 05:08:32;;;;;;;5.60;2.10;;;;;;;18.96;50.74;100811.59;5007715;28;20033;-67
2023/11/20 05:10:58;;;;;;;4.82;1.95;;;;;;;18.95;50.57;100808.13;5007163;28;20367;-66
2023/11/20 05:13:23;;;;;;;7.35;2.13;;;;;;;18.96;50.51;100812.47;4991615;28;20065;-70
2023/11/20 05:15:49;;;;;;;6.00;2.13;;;;;;;18.97;50.39;100813.28;5008938;28;20025;-68
2023/11/20 05:18:15;;;;;;;6.43;2.30;;;;;;;18.96;50.34;100808.97;5008950;28;20087;-69
2023/11/20 05:20:40;;;;;;;5.90;2.00;;;;;;;18.95;50.54;100816.06;5008694;28;20049;-68
2023/11/20 05:23:06;;;;;;;6.75;2.17;;;;;;;18.95;50.40;100816.06;5008697;28;20070;-69
2023/11/20 05:25:31;;;;;;;5.65;2.30;;;;;;;18.96;50.46;100816.88;5008816;28;20018;-68
2023/11/20 05:27:56;;;;;;;7.25;2.30;;;;;;;18.93;50.42;100815.34;5008225;28;20081;-68
2023/11/20 05:30:22;;;;;;;7.22;2.72;;;;;;;18.94;50.46;100824.09;5007405;28;20168;-68
2023/11/20 05:32:47;;;;;;;6.38;2.17;;;;;;;18.94;50.46;100824.94;5008341;28;20517;-68
2023/11/20 05:35:13;;;;;;;5.37;2.03;;;;;;;18.94;50.45;100819.66;5008460;28;20121;-68
2023/11/20 05:37:39;;;;;;;6.57;2.30;;;;;;;18.94;50.58;100830.22;5007694;28;20279;-68
2023/11/20 05:40:06;;;;;;;6.22;2.20;;;;;;;18.94;50.56;100829.38;5008393;28;20037;-67
2023/11/20 05:42:31;;;;;;;7.03;2.03;;;;;;;18.93;50.26;100825.91;5007965;28;20030;-67
2023/11/20 05:44:57;;;;;;;6.82;1.98;;;;;;;18.93;50.46;100827.69;5007733;28;20037;-68
2023/11/20 05:47:23;;;;;;;6.22;2.00;;;;;;;18.92;50.33;100821.59;5005847;28;20041;-68
2023/11/20 05:49:51;;;;;;;7.13;2.22;;;;;;;18.92;50.33;100826.88;5007193;28;20042;-66
2023/11/20 05:52:16;;;;;;;5.55;1.85;;;;;;;18.93;50.48;100822.41;5006367;28;20034;-67
2023/11/20 05:54:41;;;;;;;6.32;2.05;;;;;;;18.91;50.32;100825.19;5005731;28;20367;-67
2023/11/20 05:57:07;;;;;;;6.18;2.00;;;;;;;18.92;50.14;100818.94;5007275;28;20030;-67
2023/11/20 05:59:32;;;;;;;6.10;2.15;;;;;;;18.92;50.40;100824.22;5008043;28;20028;-67
2023/11/20 06:01:58;;;;;;;7.65;2.35;;;;;;;18.91;50.21;100822.56;5007728;28;20103;-67
2023/11/20 06:04:24;;;;;;;6.20;2.38;;;;;;;18.92;50.34;100826.06;5007700;28;20017;-66
2023/11/20 06:06:49;;;;;;;10.35;2.28;;;;;;;18.91;50.40;100830.47;5007284;28;20140;-67
2023/11/20 06:09:15;;;;;;;4.50;1.88;;;;;;;18.93;50.26;100832.97;5007623;28;20057;-67
2023/11/20 06:11:43;;;;;;;8.02;2.22;;;;;;;18.93;50.11;100839.13;5007949;28;20054;-67
2023/11/20 06:14:09;;;;;;;7.18;2.30;;;;;;;18.94;49.99;100846.06;5007663;28;20039;-66
2023/11/20 06:16:34;;;;;;;8.43;2.20;;;;;;;18.92;50.12;100840.06;5007653;28;20377;-67
2023/11/20 06:19:00;;;;;;;8.25;1.70;;;;;;;18.93;50.20;100840.91;5007265;28;20542;-67
2023/11/20 06:21:25;;;;;;;6.97;1.92;;;;;;;18.94;50.16;100845.22;5007478;28;20546;-67
2023/11/20 06:23:53;;;;;;;4.35;1.90;;;;;;;18.95;50.01;100841.63;5007587;28;20029;-67
2023/11/20 06:26:18;;;;;;;8.43;2.63;;;;;;;18.94;50.01;100845.22;5007366;28;20044;-67
2023/11/20 06:28:44;;;;;;;8.30;2.40;;;;;;;18.96;50.14;100851.22;5006895;28;20041;-67
2023/11/20 06:31:11;;;;;;;6.80;2.13;;;;;;;18.95;50.28;100855.66;5006010;28;20034;-67
2023/11/20 06:33:37;;;;;;;6.63;1.95;;;;;;;18.94;50.37;100856.63;5006979;28;20049;-68
2023/11/20 06:36:02;;;;;;;6.32;2.15;;;;;;;18.95;50.36;100862.75;5007437;28;20068;-67
2023/11/20 06:38:28;;;;;;;5.82;2.00;;;;;;;18.95;50.22;100860.94;5006493;28;20034;-69
2023/11/20 06:40:55;;;;;;;6.38;2.00;;;;;;;18.95;50.13;100863.59;5007074;28;20065;-68
2023/11/20 06:43:21;;;;;;;5.60;2.35;;;;;;;18.96;50.32;100860.00;5006741;28;20065;-68
2023/11/20 06:45:46;;;;;;;5.88;2.00;;;;;;;18.97;50.36;100869.56;5006917;28;20058;-69
2023/11/20 06:48:12;;;;;;;4.88;1.60;;;;;;;18.99;50.47;100869.44;5007404;28;20418;-68
2023/11/20 06:50:37;;;;;;;5.80;1.60;;;;;;;19.02;50.46;100861.25;5006854;28;20076;-68
2023/11/20 06:53:04;;;;;;;6.50;1.80;;;;;;;19.00;50.65;100863.19;5007181;28;20470;-69
2023/11/20 06:55:30;;;;;;;4.90;1.63;;;;;;;19.02;50.66;100859.44;5006937;28;20119;-69
2023/11/20 06:57:55;;;;;;;6.07;1.70;;;;;;;19.04;50.77;100856.66;5006806;28;20041;-68
2023/11/20 07:00:21;;;;;;;6.47;1.90;;;;;;;19.05;50.48;100855.72;5007184;28;20033;-68
2023/11/20 07:02:47;;;;;;;6.50;2.15;;;;;;;19.06;50.85;100860.03;5006414;28;20038;-67
2023/11/20 07:05:16;;;;;;;4.72;1.58;;;;;;;19.07;50.95;100855.59;5006688;28;20410;-67
2023/11/20 07:07:50;;;;;;;5.93;1.70;;;;;;;19.08;51.18;100857.28;5006683;28;20060;-68
2023/11/20 07:10:23;;;;;;;8.30;2.00;;;;;;;19.09;51.05;100851.88;5006720;28;20029;-68
2023/11/20 07:12:56;;;;;;;6.03;1.75;;;;;;;19.11;51.22;100859.66;5006737;28;20114;-67
2023/11/20 07:15:23;;;;;;;7.03;1.90;;;;;;;19.14;51.09;100875.25;5006307;28;20040;-69
2023/11/20 07:17:48;;;;;;;6.40;2.10;;;;;;;19.16;51.24;100868.84;5006199;28;20025;-70
2023/11/20 07:20:14;;;;;;;8.18;2.00;;;;;;;19.16;51.26;100865.38;5006211;28;20402;-67
2023/11/20 07:22:39;;;;;;;8.15;1.80;;;;;;;19.15;51.37;100869.84;5006485;28;20029;-67
2023/11/20 07:25:06;;;;;;;6.07;1.83;;;;;;;19.18;51.24;100884.56;5006227;28;20034;-67
2023/11/20 07:27:31;;;;;;;11.65;2.15;;;;;;;19.18;51.33;100879.28;5006072;28;20454;-66
2023/11/20 07:29:57;;;;;;;5.88;1.92;;;;;;;19.20;51.51;100891.41;5005697;28;20045;-69
2023/11/20 07:32:22;;;;;;;5.07;1.77;;;;;;;19.19;51.59;100891.53;5010349;28;20033;-68
2023/11/20 07:34:48;;;;;;;4.25;1.40;;;;;;;19.22;51.21;100891.28;5010316;28;20069;-67
2023/11/20 07:37:13;;;;;;;6.20;2.15;;;;;;;19.21;51.57;100901.00;5009270;28;20410;-67
2023/11/20 07:39:39;;;;;;;6.40;1.85;;;;;;;19.21;51.48;100898.34;5010717;28;20025;-66
2023/11/20 07:42:04;;;;;;;6.90;1.87;;;;;;;19.24;51.51;100907.00;5010706;28;20025;-67
2023/11/20 07:44:29;;;;;;;5.13;1.77;;;;;;;19.24;51.19;100902.53;5010089;28;20787;-67
2023/11/20 07:46:54;;;;;;;7.28;1.95;;;;;;;19.22;51.57;100896.56;5009995;28;20359;-67
2023/11/20 07:49:20;;;;;;;6.15;1.88;;;;;;;19.25;51.73;100903.38;5010332;28;20116;-67
2023/11/20 07:51:46;;;;;;;5.70;1.98;;;;;;;19.26;51.52;100897.13;5010293;28;20088;-69
2023/11/20 07:54:12;;;;;;;5.95;1.92;;;;;;;19.26;51.65;100902.41;5010513;28;20022;-68
2023/11/20 07:56:38;;;;;;;7.22;2.03;;;;;;;19.27;51.65;100906.75;5010742;28;20049;-67
2023/11/20 07:59:03;;;;;;;6.45;1.83;;;;;;;19.29;51.59;100904.78;5009636;28;20207;-67
2023/11/20 08:01:29;;;;;;;6.13;1.60;;;;;;;19.29;51.65;100905.63;5010031;28;20471;-67
2023/11/20 08:03:54;;;;;;;5.93;1.60;;;;;;;19.29;51.69;100900.34;5009753;28;20045;-68
2023/11/20 08:06:19;;;;;;;6.05;1.67;;;;;;;19.29;51.65;100899.50;5009828;28;20085;-69
2023/11/20 08:08:45;;;;;;;4.88;1.73;;;;;;;19.29;51.56;100889.78;5009982;28;20048;-68
2023/11/20 08:11:10;;;;;;;7.20;2.03;;;;;;;19.28;51.61;100900.47;5009695;28;20374;-69
2023/11/20 08:13:36;;;;;;;5.35;1.60;;;;;;;19.29;51.77;100895.06;5009401;28;20446;-69
2023/11/20 08:16:03;;;;;;;6.88;1.58;;;;;;;19.31;51.41;100898.44;5008082;28;20394;-68
2023/11/20 08:18:29;;;;;;;8.77;1.85;;;;;;;19.36;51.31;100900.69;5009290;28;20026;-68
2023/11/20 08:20:55;;;;;;;7.25;1.92;;;;;;;19.38;51.29;100896.09;5009301;28;20033;-68
2023/11/20 08:23:20;;;;;;;7.90;2.10;;;;;;;19.36;51.34;100890.09;5008783;28;20041;-68
2023/11/20 08:25:46;;;;;;;7.97;1.73;;;;;;;19.31;51.34;100889.63;5009208;28;20046;-67
2023/11/20 08:28:11;;;;;;;7.40;1.75;;;;;;;19.27;51.30;100899.63;5009011;28;20386;-68
2023/11/20 08:30:36;;;;;;;7.97;2.00;;;;;;;19.23;51.43;100894.75;5007892;28;20049;-68
2023/11/20 08:33:02;;;;;;;9.88;2.05;;;;;;;19.22;51.57;100888.63;5008833;28;20034;-68
2023/11/20 08:35:28;;;;;;;5.90;1.75;;;;;;;19.24;51.56;100891.16;5008981;28;20034;-68
2023/11/20 08:37:54;;;;;;;6.18;1.55;;;;;;;19.24;51.34;100888.50;5008684;28;20025;-67
2023/11/20 08:40:20;;;;;;;6.47;1.77;;;;;;;19.25;51.50;100888.38;5008392;28;20030;-68
2023/11/20 08:42:46;;;;;;;8.48;1.88;;;;;;;19.22;51.07;100886.00;5007407;28;20037;-69
2023/11/20 08:45:12;;;;;;;7.35;1.50;;;;;;;19.21;51.43;100885.13;5008047;28;20034;-67
2023/11/20 08:47:39;;;;;;;7.85;1.88;;;;;;;19.24;51.35;100884.03;5008647;28;20044;-69
2023/11/20 08:50:06;;;;;;;5.97;1.70;;;;;;;19.24;51.39;100883.22;5008223;28;20537;-68
2023/11/20 08:52:31;;;;;;;7.45;2.15;;;;;;;19.27;51.36;100886.44;5008537;28;20407;-68
2023/11/20 08:54:57;;;;;;;5.65;2.10;;;;;;;19.26;51.25;100876.00;5008816;28;20093;-69
2023/11/20 08:57:22;;;;;;;7.95;1.70;;;;;;;19.26;51.38;100874.19;5010647;28;20044;-69
2023/11/20 08:59:49;;;;;;;7.53;1.50;;;;;;;19.23;51.44;100873.59;5008270;28;20036;-68
2023/11/20 09:02:14;;;;;;;6.40;1.75;;;;;;;19.24;51.31;100876.13;5008066;28;20108;-68
2023/11/20 09:04:40;;;;;;;5.60;1.65;;;;;;;19.23;51.61;100863.88;5008344;28;20065;-69
2023/11/20 09:07:05;;;;;;;6.93;2.00;;;;;;;19.24;51.28;100870.84;5007445;28;20105;-68
2023/11/20 09:09:30;;;;;;;5.45;1.60;;;;;;;19.23;51.36;100863.88;5022939;28;20025;-68
2023/11/20 09:11:56;;;;;;;5.57;1.48;;;;;;;19.25;51.07;100872.53;5007863;28;20068;-67
2023/11/20 09:14:21;;;;;;;6.90;1.52;;;;;;;19.27;51.03;100867.09;5007247;28;20033;-66
2023/11/20 09:16:46;;;;;;;5.60;1.60;;;;;;;19.26;51.04;100868.06;5008158;28;20041;-67
2023/11/20 09:19:12;;;;;;;5.72;1.58;;;;;;;19.25;51.12;100864.59;5010487;28;20103;-67
2023/11/20 09:21:37;;;;;;;6.20;1.80;;;;;;;19.24;51.19;100865.56;5007567;28;20422;-67
2023/11/20 09:24:04;;;;;;;6.57;2.03;;;;;;;19.24;51.12;100865.56;5007781;28;20061;-67
2023/11/20 09:26:29;;;;;;;8.32;1.80;;;;;;;19.24;51.06;100865.56;5008075;28;20025;-67
2023/11/20 09:28:55;;;;;;;6.15;1.83;;;;;;;19.23;51.27;100861.22;5007001;28;20088;-68
2023/11/20 09:31:20;;;;;;;5.47;1.50;;;;;;;19.23;51.02;100861.22;5007561;28;20477;-67
2023/11/20 09:33:47;;;;;;;6.85;1.88;;;;;;;19.23;51.25;100863.03;5007396;28;20130;-67
2023/11/20 09:36:12;;;;;;;7.63;1.58;;;;;;;19.22;51.01;100856.94;5007722;28;20034;-69
2023/11/20 09:38:38;;;;;;;6.40;1.42;;;;;;;19.23;51.10;100860.41;5007858;28;20056;-67
2023/11/20 09:41:04;;;;;;;7.20;1.90;;;;;;;19.26;51.06;100862.78;5007024;28;20033;-68
2023/11/20 09:43:29;;;;;;;8.25;2.05;;;;;;;19.33;50.89;100859.47;5009626;28;20083;-67
2023/11/20 09:45:59;;;;;;;5.90;1.95;;;;;;;19.42;50.38;100864.94;5006635;28;20422;-67
2023/11/20 09:48:28;;;;;;;9.05;1.95;;;;;;;19.46;50.16;100861.91;5007688;28;20113;-67
2023/11/20 09:50:54;;;;;;;5.80;1.80;;;;;;;19.47;50.21;100863.59;5006679;28;20125;-67
2023/11/20 09:53:19;;;;;;;6.93;1.92;;;;;;;19.49;50.12;100868.75;5006153;28;20534;-67
2023/11/20 09:55:45;;;;;;;5.90;1.52;;;;;;;19.47;49.89;100863.59;5006866;28;20030;-67
2023/11/20 09:58:10;;;;;;;7.97;1.65;;;;;;;19.46;50.13;100859.25;5007433;28;20035;-67
2023/11/20 10:00:36;;;;;;;6.82;1.70;;;;;;;19.46;50.00;100858.44;5022342;28;20409;-67
2023/11/20 10:03:04;;;;;;;4.85;1.48;;;;;;;19.46;50.20;100863.72;5007528;28;20355;-67
2023/11/20 10:05:38;;;;;;;6.65;1.92;;;;;;;19.44;50.21;100861.22;5007490;28;20580;-68
2023/11/20 10:08:07;;;;;;;7.03;1.45;;;;;;;19.40;50.14;100844.75;5007619;28;20036;-67
2023/11/20 10:10:34;;;;;;;5.80;1.52;;;;;;;19.43;49.97;100848.13;5006106;28;20041;-69
2023/11/20 10:13:04;;;;;;;6.53;1.48;;;;;;;19.37;50.03;100844.19;5006182;28;20397;-68
2023/11/20 10:15:30;;;;;;;6.65;1.70;;;;;;;19.31;50.06;100839.44;5006395;28;20390;-68
2023/11/20 10:17:55;;;;;;;5.60;1.40;;;;;;;19.35;50.13;100838.22;5006540;28;20030;-67
2023/11/20 10:20:20;;;;;;;4.60;1.47;;;;;;;19.36;50.23;100826.69;5006591;28;20044;-72
2023/11/20 10:22:47;;;;;;;5.13;1.35;;;;;;;19.42;50.26;100836.69;5006461;28;20313;-68
2023/11/20 10:25:12;;;;;;;6.13;1.17;;;;;;;19.41;50.35;100835.03;5006512;28;20447;-69
2023/11/20 10:27:38;;;;;;;7.03;1.35;;;;;;;19.42;50.27;100827.94;5006564;28;20033;-66
2023/11/20 10:30:04;;;;;;;7.27;1.70;;;;;;;19.40;50.14;100830.72;5005575;28;20046;-68
2023/11/20 10:32:30;;;;;;;5.57;1.60;;;;;;;19.38;50.16;100830.84;5006850;28;20550;-69
2023/11/20 10:35:17;;;;;;;7.18;1.40;;;;;;;19.37;50.47;100838.91;5006366;28;20120;-69
2023/11/20 10:37:52;;;;;;;5.72;1.60;;;;;;;19.37;50.43;100826.53;5005747;28;20034;-68
2023/11/20 10:40:18;;;;;;;6.82;1.73;;;;;;;19.38;50.34;100825.56;5006209;28;20034;-68
2023/11/20 10:42:43;;;;;;;5.35;1.25;;;;;;;19.38;50.43;100816.81;5006022;28;20402;-69
2023/11/20 10:45:09;;;;;;;4.88;1.67;;;;;;;19.38;50.51;100815.00;5005636;28;20040;-70
2023/11/20 10:47:34;;;;;;;4.65;1.40;;;;;;;19.40;50.45;100825.44;5006564;28;20473;-67
2023/11/20 10:49:59;;;;;;;5.72;1.55;;;;;;;19.40;50.27;100823.63;5007338;28;20459;-71
2023/11/20 10:52:29;;;;;;;4.93;1.47;;;;;;;19.40;50.42;100820.97;5002924;28;20041;-70
2023/11/20 10:55:00;;;;;;;6.15;1.40;;;;;;;19.41;50.31;100816.53;5001522;28;20759;-69
2023/11/20 10:57:26;;;;;;;4.57;1.38;;;;;;;19.42;49.81;100818.19;5001288;28;20048;-70
2023/11/20 10:59:53;;;;;;;7.03;1.50;;;;;;;19.42;50.03;100817.38;5001454;28;20034;-69
2023/11/20 11:02:20;;;;;;;4.85;1.20;;;;;;;19.42;50.32;100817.38;5001531;28;20042;-69
2023/11/20 11:04:46;;;;;;;6.20;1.63;;;;;;;19.43;50.36;100813.75;5000538;28;20065;-66
2023/11/20 11:07:15;;;;;;;4.80;1.10;;;;;;;19.47;50.35;100818.66;5001429;28;20034;-67
2023/11/20 11:09:44;;;;;;;6.38;1.80;;;;;;;19.51;50.14;100809.47;5000679;28;20034;-68
2023/11/20 11:12:10;;;;;;;5.22;1.30;;;;;;;19.51;50.05;100814.75;5001998;28;20129;-68
2023/11/20 11:14:36;;;;;;;5.35;1.40;;;;;;;19.50;50.01;100810.47;5001229;28;20858;-68
2023/11/20 11:17:06;;;;;;;6.78;1.48;;;;;;;19.51;49.89;100809.47;5002044;28;20033;-67
2023/11/20 11:19:45;;;;;;;4.72;1.25;;;;;;;19.51;49.70;100803.34;5001702;28;20638;-68